sensor_id;sensor_type;location;lat;lon;timestamp;P1;durP1;ratioP1;P2;durP2;ratioP2
54831;SDS011;40730;53.068;6.572;2023-01-29T00:01:08;13.70;;;8.90;;
54831;SDS011;40730;53.068;6.572;2023-01-29T00:03:34;14.48;;;7.70;;
54831;SDS011;40730;53.068;6.572;2023-01-29T00:06:03;15.88;;;8.32;;
54831;SDS011;40730;53.068;6.572;2023-01-29T00:08:37;16.83;;;8.98;;
54831;SDS011;40730;53.068;6.572;2023-01-29T00:11:04;15.02;;;9.13;;
54831;SDS011;40730;53.068;6.572;2023-01-29T00:13:31;16.35;;;9.93;;
54831;SDS011;40730;53.068;6.572;2023-01-29T00:15:58;17.52;;;9.50;;
54831;SDS011;40730;53.068;6.572;2023-01-29T00:18:24;17.50;;;10.18;;
54831;SDS011;40730;53.068;6.572;2023-01-29T00:20:51;18.42;;;10.18;;
54831;SDS011;40730;53.068;6.572;2023-01-29T00:23:16;17.80;;;10.38;;
54831;SDS011;40730;53.068;6.572;2023-01-29T00:25:42;18.98;;;10.15;;
54831;SDS011;40730;53.068;6.572;2023-01-29T00:28:08;18.63;;;10.18;;
54831;SDS011;40730;53.068;6.572;2023-01-29T00:30:35;17.27;;;11.32;;
54831;SDS011;40730;53.068;6.572;2023-01-29T00:33:01;20.88;;;11.15;;
54831;SDS011;40730;53.068;6.572;2023-01-29T00:35:27;20.15;;;10.65;;
54831;SDS011;40730;53.068;6.572;2023-01-29T00:37:54;21.70;;;11.60;;
54831;SDS011;40730;53.068;6.572;2023-01-29T00:40:20;25.98;;;12.85;;
54831;SDS011;40730;53.068;6.572;2023-01-29T00:42:46;20.55;;;12.52;;
54831;SDS011;40730;53.068;6.572;2023-01-29T00:45:31;21.95;;;13.55;;
54831;SDS011;40730;53.068;6.572;2023-01-29T00:47:57;20.83;;;13.23;;
54831;SDS011;40730;53.068;6.572;2023-01-29T00:50:22;22.88;;;12.98;;
54831;SDS011;40730;53.068;6.572;2023-01-29T00:52:48;21.67;;;12.68;;
54831;SDS011;40730;53.068;6.572;2023-01-29T00:55:16;26.25;;;14.38;;
54831;SDS011;40730;53.068;6.572;2023-01-29T00:57:41;22.35;;;14.13;;
54831;SDS011;40730;53.068;6.572;2023-01-29T01:00:09;27.20;;;15.25;;
54831;SDS011;40730;53.068;6.572;2023-01-29T01:02:36;26.38;;;15.05;;
54831;SDS011;40730;53.068;6.572;2023-01-29T01:05:21;22.75;;;14.85;;
54831;SDS011;40730;53.068;6.572;2023-01-29T01:07:47;22.98;;;15.60;;
54831;SDS011;40730;53.068;6.572;2023-01-29T01:10:16;25.63;;;16.42;;
54831;SDS011;40730;53.068;6.572;2023-01-29T01:15:27;28.40;;;15.70;;
54831;SDS011;40730;53.068;6.572;2023-01-29T01:17:57;28.45;;;17.00;;
54831;SDS011;40730;53.068;6.572;2023-01-29T01:20:25;31.25;;;16.80;;
54831;SDS011;40730;53.068;6.572;2023-01-29T01:22:53;24.52;;;16.10;;
54831;SDS011;40730;53.068;6.572;2023-01-29T01:25:19;30.20;;;18.40;;
54831;SDS011;40730;53.068;6.572;2023-01-29T01:27:45;24.92;;;15.77;;
54831;SDS011;40730;53.068;6.572;2023-01-29T01:30:12;28.58;;;17.67;;
54831;SDS011;40730;53.068;6.572;2023-01-29T01:32:39;28.13;;;16.45;;
54831;SDS011;40730;53.068;6.572;2023-01-29T01:35:06;27.13;;;17.88;;
54831;SDS011;40730;53.068;6.572;2023-01-29T01:37:32;30.30;;;18.15;;
54831;SDS011;40730;53.068;6.572;2023-01-29T01:40:02;33.03;;;18.48;;
54831;SDS011;40730;53.068;6.572;2023-01-29T01:42:39;35.00;;;19.87;;
54831;SDS011;40730;53.068;6.572;2023-01-29T01:45:05;35.58;;;19.30;;
54831;SDS011;40730;53.068;6.572;2023-01-29T01:50:00;32.35;;;19.17;;
54831;SDS011;40730;53.068;6.572;2023-01-29T01:52:32;36.35;;;19.63;;
54831;SDS011;40730;53.068;6.572;2023-01-29T01:54:59;32.42;;;19.50;;
54831;SDS011;40730;53.068;6.572;2023-01-29T01:57:25;33.33;;;20.50;;
54831;SDS011;40730;53.068;6.572;2023-01-29T01:59:58;30.20;;;19.35;;
54831;SDS011;40730;53.068;6.572;2023-01-29T02:02:34;36.72;;;20.88;;
54831;SDS011;40730;53.068;6.572;2023-01-29T02:05:19;30.35;;;19.77;;
54831;SDS011;40730;53.068;6.572;2023-01-29T02:08:04;32.22;;;19.30;;
54831;SDS011;40730;53.068;6.572;2023-01-29T02:10:48;32.22;;;19.88;;
54831;SDS011;40730;53.068;6.572;2023-01-29T02:13:14;31.40;;;19.88;;
54831;SDS011;40730;53.068;6.572;2023-01-29T02:15:42;32.80;;;19.33;;
54831;SDS011;40730;53.068;6.572;2023-01-29T02:18:16;30.85;;;19.02;;
54831;SDS011;40730;53.068;6.572;2023-01-29T02:20:48;31.10;;;19.42;;
54831;SDS011;40730;53.068;6.572;2023-01-29T02:31:49;30.10;;;19.10;;
54831;SDS011;40730;53.068;6.572;2023-01-29T02:37:30;29.58;;;18.23;;
54831;SDS011;40730;53.068;6.572;2023-01-29T02:40:05;26.73;;;17.20;;
54831;SDS011;40730;53.068;6.572;2023-01-29T02:42:51;30.52;;;18.50;;
54831;SDS011;40730;53.068;6.572;2023-01-29T02:45:21;30.85;;;19.67;;
54831;SDS011;40730;53.068;6.572;2023-01-29T02:48:02;28.42;;;19.30;;
54831;SDS011;40730;53.068;6.572;2023-01-29T02:50:53;28.17;;;17.98;;
54831;SDS011;40730;53.068;6.572;2023-01-29T02:53:19;30.95;;;18.55;;
54831;SDS011;40730;53.068;6.572;2023-01-29T03:00:49;30.70;;;18.92;;
54831;SDS011;40730;53.068;6.572;2023-01-29T03:03:17;30.15;;;18.70;;
54831;SDS011;40730;53.068;6.572;2023-01-29T03:05:55;30.30;;;18.40;;
54831;SDS011;40730;53.068;6.572;2023-01-29T03:08:45;26.08;;;18.70;;
54831;SDS011;40730;53.068;6.572;2023-01-29T03:11:18;27.77;;;18.17;;
54831;SDS011;40730;53.068;6.572;2023-01-29T03:13:44;27.98;;;17.52;;
54831;SDS011;40730;53.068;6.572;2023-01-29T03:16:19;26.27;;;16.70;;
54831;SDS011;40730;53.068;6.572;2023-01-29T03:18:54;27.77;;;18.23;;
54831;SDS011;40730;53.068;6.572;2023-01-29T03:21:29;29.50;;;18.15;;
54831;SDS011;40730;53.068;6.572;2023-01-29T03:24:25;25.58;;;17.23;;
54831;SDS011;40730;53.068;6.572;2023-01-29T03:27:19;28.92;;;18.17;;
54831;SDS011;40730;53.068;6.572;2023-01-29T03:30:08;29.27;;;17.92;;
54831;SDS011;40730;53.068;6.572;2023-01-29T03:32:56;26.75;;;17.70;;
54831;SDS011;40730;53.068;6.572;2023-01-29T03:35:24;27.45;;;17.88;;
54831;SDS011;40730;53.068;6.572;2023-01-29T03:38:00;29.33;;;19.02;;
54831;SDS011;40730;53.068;6.572;2023-01-29T03:40:34;29.38;;;17.98;;
54831;SDS011;40730;53.068;6.572;2023-01-29T03:43:30;28.83;;;18.73;;
54831;SDS011;40730;53.068;6.572;2023-01-29T03:46:20;30.67;;;19.30;;
54831;SDS011;40730;53.068;6.572;2023-01-29T03:48:55;30.77;;;18.42;;
54831;SDS011;40730;53.068;6.572;2023-01-29T03:54:42;29.88;;;19.67;;
54831;SDS011;40730;53.068;6.572;2023-01-29T03:57:35;30.15;;;20.23;;
54831;SDS011;40730;53.068;6.572;2023-01-29T04:02:36;33.30;;;20.17;;
54831;SDS011;40730;53.068;6.572;2023-01-29T04:05:13;32.40;;;19.73;;
54831;SDS011;40730;53.068;6.572;2023-01-29T04:07:43;31.90;;;20.33;;
54831;SDS011;40730;53.068;6.572;2023-01-29T04:10:17;34.40;;;20.17;;
54831;SDS011;40730;53.068;6.572;2023-01-29T04:12:48;33.70;;;21.13;;
54831;SDS011;40730;53.068;6.572;2023-01-29T04:15:18;33.78;;;20.38;;
54831;SDS011;40730;53.068;6.572;2023-01-29T04:17:50;37.60;;;21.15;;
54831;SDS011;40730;53.068;6.572;2023-01-29T04:20:17;32.92;;;20.50;;
54831;SDS011;40730;53.068;6.572;2023-01-29T04:22:45;33.20;;;20.25;;
54831;SDS011;40730;53.068;6.572;2023-01-29T04:25:14;30.40;;;19.30;;
54831;SDS011;40730;53.068;6.572;2023-01-29T04:30:41;33.13;;;19.23;;
54831;SDS011;40730;53.068;6.572;2023-01-29T04:33:35;32.30;;;19.02;;
54831;SDS011;40730;53.068;6.572;2023-01-29T04:49:45;30.95;;;17.10;;
54831;SDS011;40730;53.068;6.572;2023-01-29T04:55:06;26.20;;;17.38;;
54831;SDS011;40730;53.068;6.572;2023-01-29T04:57:46;29.38;;;18.15;;
54831;SDS011;40730;53.068;6.572;2023-01-29T05:00:28;29.38;;;17.83;;
54831;SDS011;40730;53.068;6.572;2023-01-29T05:02:59;29.52;;;18.08;;
54831;SDS011;40730;53.068;6.572;2023-01-29T05:05:26;28.65;;;18.30;;
54831;SDS011;40730;53.068;6.572;2023-01-29T05:07:53;28.70;;;18.35;;
54831;SDS011;40730;53.068;6.572;2023-01-29T05:10:21;29.77;;;17.98;;
54831;SDS011;40730;53.068;6.572;2023-01-29T05:12:50;33.30;;;19.95;;
54831;SDS011;40730;53.068;6.572;2023-01-29T05:15:23;30.73;;;19.23;;
54831;SDS011;40730;53.068;6.572;2023-01-29T05:17:52;31.63;;;18.52;;
54831;SDS011;40730;53.068;6.572;2023-01-29T05:20:17;31.70;;;19.00;;
54831;SDS011;40730;53.068;6.572;2023-01-29T05:22:44;32.50;;;20.08;;
54831;SDS011;40730;53.068;6.572;2023-01-29T05:25:25;32.63;;;18.90;;
54831;SDS011;40730;53.068;6.572;2023-01-29T05:27:52;34.50;;;22.30;;
54831;SDS011;40730;53.068;6.572;2023-01-29T05:30:37;39.38;;;21.73;;
54831;SDS011;40730;53.068;6.572;2023-01-29T05:33:04;38.30;;;21.98;;
54831;SDS011;40730;53.068;6.572;2023-01-29T05:35:36;36.40;;;21.48;;
54831;SDS011;40730;53.068;6.572;2023-01-29T05:38:02;37.38;;;22.10;;
54831;SDS011;40730;53.068;6.572;2023-01-29T05:40:28;40.33;;;22.02;;
54831;SDS011;40730;53.068;6.572;2023-01-29T05:42:54;39.70;;;22.92;;
54831;SDS011;40730;53.068;6.572;2023-01-29T05:45:19;40.88;;;23.67;;
54831;SDS011;40730;53.068;6.572;2023-01-29T05:47:45;39.67;;;23.85;;
54831;SDS011;40730;53.068;6.572;2023-01-29T05:50:12;42.80;;;24.88;;
54831;SDS011;40730;53.068;6.572;2023-01-29T05:52:38;37.80;;;22.10;;
54831;SDS011;40730;53.068;6.572;2023-01-29T05:55:05;37.35;;;22.10;;
54831;SDS011;40730;53.068;6.572;2023-01-29T05:57:31;37.90;;;21.67;;
54831;SDS011;40730;53.068;6.572;2023-01-29T05:59:57;37.05;;;22.77;;
54831;SDS011;40730;53.068;6.572;2023-01-29T06:02:22;39.38;;;23.15;;
54831;SDS011;40730;53.068;6.572;2023-01-29T06:04:49;43.45;;;25.00;;
54831;SDS011;40730;53.068;6.572;2023-01-29T06:07:17;39.42;;;22.50;;
54831;SDS011;40730;53.068;6.572;2023-01-29T06:09:42;37.67;;;24.10;;
54831;SDS011;40730;53.068;6.572;2023-01-29T06:12:08;36.50;;;23.67;;
54831;SDS011;40730;53.068;6.572;2023-01-29T06:14:34;36.95;;;23.40;;
54831;SDS011;40730;53.068;6.572;2023-01-29T06:16:59;41.28;;;23.88;;
54831;SDS011;40730;53.068;6.572;2023-01-29T06:19:25;37.10;;;22.75;;
54831;SDS011;40730;53.068;6.572;2023-01-29T06:21:50;37.35;;;22.85;;
54831;SDS011;40730;53.068;6.572;2023-01-29T06:24:16;35.75;;;22.90;;
54831;SDS011;40730;53.068;6.572;2023-01-29T06:26:41;44.75;;;24.15;;
54831;SDS011;40730;53.068;6.572;2023-01-29T06:29:07;37.45;;;23.70;;
54831;SDS011;40730;53.068;6.572;2023-01-29T06:31:33;36.72;;;23.23;;
54831;SDS011;40730;53.068;6.572;2023-01-29T06:33:58;36.10;;;22.23;;
54831;SDS011;40730;53.068;6.572;2023-01-29T06:36:24;35.90;;;21.52;;
54831;SDS011;40730;53.068;6.572;2023-01-29T06:38:49;31.25;;;20.48;;
54831;SDS011;40730;53.068;6.572;2023-01-29T06:41:15;36.58;;;22.98;;
54831;SDS011;40730;53.068;6.572;2023-01-29T06:43:43;37.50;;;23.77;;
54831;SDS011;40730;53.068;6.572;2023-01-29T06:46:09;36.72;;;23.30;;
54831;SDS011;40730;53.068;6.572;2023-01-29T06:48:35;39.55;;;23.85;;
54831;SDS011;40730;53.068;6.572;2023-01-29T06:51:01;38.00;;;24.42;;
54831;SDS011;40730;53.068;6.572;2023-01-29T06:53:28;38.63;;;25.33;;
54831;SDS011;40730;53.068;6.572;2023-01-29T06:55:53;40.22;;;26.10;;
54831;SDS011;40730;53.068;6.572;2023-01-29T06:58:20;38.00;;;25.08;;
54831;SDS011;40730;53.068;6.572;2023-01-29T07:00:46;40.13;;;25.92;;
54831;SDS011;40730;53.068;6.572;2023-01-29T07:03:11;40.15;;;27.35;;
54831;SDS011;40730;53.068;6.572;2023-01-29T07:05:37;41.13;;;27.65;;
54831;SDS011;40730;53.068;6.572;2023-01-29T07:08:03;45.05;;;28.80;;
54831;SDS011;40730;53.068;6.572;2023-01-29T07:10:29;40.38;;;27.48;;
54831;SDS011;40730;53.068;6.572;2023-01-29T07:12:55;44.67;;;27.83;;
54831;SDS011;40730;53.068;6.572;2023-01-29T07:15:20;43.00;;;27.23;;
54831;SDS011;40730;53.068;6.572;2023-01-29T07:18:02;47.65;;;30.50;;
54831;SDS011;40730;53.068;6.572;2023-01-29T07:20:30;43.25;;;28.40;;
54831;SDS011;40730;53.068;6.572;2023-01-29T07:22:56;42.50;;;28.70;;
54831;SDS011;40730;53.068;6.572;2023-01-29T07:25:22;44.80;;;29.10;;
54831;SDS011;40730;53.068;6.572;2023-01-29T07:27:48;44.45;;;27.85;;
54831;SDS011;40730;53.068;6.572;2023-01-29T07:30:14;45.53;;;30.13;;
54831;SDS011;40730;53.068;6.572;2023-01-29T07:32:40;44.95;;;29.73;;
54831;SDS011;40730;53.068;6.572;2023-01-29T07:35:06;44.97;;;28.42;;
54831;SDS011;40730;53.068;6.572;2023-01-29T07:37:32;44.42;;;29.02;;
54831;SDS011;40730;53.068;6.572;2023-01-29T07:39:58;42.35;;;28.15;;
54831;SDS011;40730;53.068;6.572;2023-01-29T07:42:23;46.25;;;29.75;;
54831;SDS011;40730;53.068;6.572;2023-01-29T07:44:49;44.70;;;28.65;;
54831;SDS011;40730;53.068;6.572;2023-01-29T07:47:14;42.50;;;29.48;;
54831;SDS011;40730;53.068;6.572;2023-01-29T07:49:40;41.67;;;27.98;;
54831;SDS011;40730;53.068;6.572;2023-01-29T07:52:06;46.72;;;32.40;;
54831;SDS011;40730;53.068;6.572;2023-01-29T07:54:31;49.15;;;30.88;;
54831;SDS011;40730;53.068;6.572;2023-01-29T07:56:57;43.97;;;30.05;;
54831;SDS011;40730;53.068;6.572;2023-01-29T07:59:23;44.20;;;31.48;;
54831;SDS011;40730;53.068;6.572;2023-01-29T08:01:48;43.70;;;30.08;;
54831;SDS011;40730;53.068;6.572;2023-01-29T08:04:14;44.13;;;29.40;;
54831;SDS011;40730;53.068;6.572;2023-01-29T08:06:39;43.55;;;31.73;;
54831;SDS011;40730;53.068;6.572;2023-01-29T08:09:05;42.60;;;30.50;;
54831;SDS011;40730;53.068;6.572;2023-01-29T08:11:31;46.70;;;30.45;;
54831;SDS011;40730;53.068;6.572;2023-01-29T08:13:56;42.38;;;28.98;;
54831;SDS011;40730;53.068;6.572;2023-01-29T08:16:22;42.25;;;30.45;;
54831;SDS011;40730;53.068;6.572;2023-01-29T08:18:48;44.67;;;29.40;;
54831;SDS011;40730;53.068;6.572;2023-01-29T08:21:14;42.28;;;27.60;;
54831;SDS011;40730;53.068;6.572;2023-01-29T08:23:40;41.20;;;28.95;;
54831;SDS011;40730;53.068;6.572;2023-01-29T08:26:06;39.70;;;29.08;;
54831;SDS011;40730;53.068;6.572;2023-01-29T08:28:31;43.95;;;30.42;;
54831;SDS011;40730;53.068;6.572;2023-01-29T08:30:57;40.33;;;28.35;;
54831;SDS011;40730;53.068;6.572;2023-01-29T08:33:23;40.97;;;27.73;;
54831;SDS011;40730;53.068;6.572;2023-01-29T08:35:51;42.17;;;28.83;;
54831;SDS011;40730;53.068;6.572;2023-01-29T08:38:17;49.55;;;29.88;;
54831;SDS011;40730;53.068;6.572;2023-01-29T08:40:43;41.42;;;28.75;;
54831;SDS011;40730;53.068;6.572;2023-01-29T08:43:09;43.08;;;28.58;;
54831;SDS011;40730;53.068;6.572;2023-01-29T08:45:36;42.53;;;29.20;;
54831;SDS011;40730;53.068;6.572;2023-01-29T08:48:04;40.83;;;27.65;;
54831;SDS011;40730;53.068;6.572;2023-01-29T08:50:30;47.20;;;31.17;;
54831;SDS011;40730;53.068;6.572;2023-01-29T08:52:57;44.53;;;29.17;;
54831;SDS011;40730;53.068;6.572;2023-01-29T08:55:24;46.25;;;29.70;;
54831;SDS011;40730;53.068;6.572;2023-01-29T08:57:50;45.42;;;30.33;;
54831;SDS011;40730;53.068;6.572;2023-01-29T09:00:15;46.78;;;30.48;;
54831;SDS011;40730;53.068;6.572;2023-01-29T09:02:41;47.40;;;31.17;;
54831;SDS011;40730;53.068;6.572;2023-01-29T09:05:07;49.17;;;30.38;;
54831;SDS011;40730;53.068;6.572;2023-01-29T09:07:33;47.55;;;29.90;;
54831;SDS011;40730;53.068;6.572;2023-01-29T09:09:59;52.30;;;30.98;;
54831;SDS011;40730;53.068;6.572;2023-01-29T09:12:24;48.60;;;30.23;;
54831;SDS011;40730;53.068;6.572;2023-01-29T09:14:50;48.75;;;31.95;;
54831;SDS011;40730;53.068;6.572;2023-01-29T09:17:15;50.80;;;31.02;;
54831;SDS011;40730;53.068;6.572;2023-01-29T09:19:41;50.47;;;31.00;;
54831;SDS011;40730;53.068;6.572;2023-01-29T09:22:06;45.42;;;29.63;;
54831;SDS011;40730;53.068;6.572;2023-01-29T09:24:32;51.88;;;31.63;;
54831;SDS011;40730;53.068;6.572;2023-01-29T09:26:59;46.40;;;29.92;;
54831;SDS011;40730;53.068;6.572;2023-01-29T09:29:25;45.65;;;29.17;;
54831;SDS011;40730;53.068;6.572;2023-01-29T09:31:50;47.47;;;29.80;;
54831;SDS011;40730;53.068;6.572;2023-01-29T09:34:16;50.08;;;31.10;;
54831;SDS011;40730;53.068;6.572;2023-01-29T09:36:42;50.88;;;30.63;;
54831;SDS011;40730;53.068;6.572;2023-01-29T09:39:08;51.60;;;29.95;;
54831;SDS011;40730;53.068;6.572;2023-01-29T09:44:27;47.17;;;29.08;;
54831;SDS011;40730;53.068;6.572;2023-01-29T09:47:15;46.90;;;29.23;;
54831;SDS011;40730;53.068;6.572;2023-01-29T09:49:46;48.60;;;28.95;;
54831;SDS011;40730;53.068;6.572;2023-01-29T09:52:20;45.40;;;28.73;;
54831;SDS011;40730;53.068;6.572;2023-01-29T10:00:13;42.65;;;27.70;;
54831;SDS011;40730;53.068;6.572;2023-01-29T10:03:50;48.72;;;29.98;;
54831;SDS011;40730;53.068;6.572;2023-01-29T10:08:49;46.20;;;29.33;;
54831;SDS011;40730;53.068;6.572;2023-01-29T10:11:31;45.45;;;28.77;;
54831;SDS011;40730;53.068;6.572;2023-01-29T10:14:34;49.08;;;29.98;;
54831;SDS011;40730;53.068;6.572;2023-01-29T10:17:30;45.70;;;27.33;;
54831;SDS011;40730;53.068;6.572;2023-01-29T10:25:38;49.80;;;28.10;;
54831;SDS011;40730;53.068;6.572;2023-01-29T10:28:14;45.58;;;29.30;;
54831;SDS011;40730;53.068;6.572;2023-01-29T10:30:53;46.00;;;27.52;;
54831;SDS011;40730;53.068;6.572;2023-01-29T10:33:25;49.05;;;29.85;;
54831;SDS011;40730;53.068;6.572;2023-01-29T10:36:00;52.70;;;29.98;;
54831;SDS011;40730;53.068;6.572;2023-01-29T10:38:39;53.13;;;31.48;;
54831;SDS011;40730;53.068;6.572;2023-01-29T10:58:21;59.33;;;31.88;;
54831;SDS011;40730;53.068;6.572;2023-01-29T11:01:01;56.53;;;31.77;;
54831;SDS011;40730;53.068;6.572;2023-01-29T11:03:28;55.67;;;32.03;;
54831;SDS011;40730;53.068;6.572;2023-01-29T11:08:50;60.00;;;32.83;;
54831;SDS011;40730;53.068;6.572;2023-01-29T11:11:20;62.40;;;34.15;;
54831;SDS011;40730;53.068;6.572;2023-01-29T11:13:57;68.72;;;33.45;;
54831;SDS011;40730;53.068;6.572;2023-01-29T11:16:30;60.75;;;31.90;;
54831;SDS011;40730;53.068;6.572;2023-01-29T11:19:04;58.08;;;31.73;;
54831;SDS011;40730;53.068;6.572;2023-01-29T11:21:29;60.03;;;33.28;;
54831;SDS011;40730;53.068;6.572;2023-01-29T11:24:11;52.30;;;28.33;;
54831;SDS011;40730;53.068;6.572;2023-01-29T11:26:42;58.17;;;31.48;;
54831;SDS011;40730;53.068;6.572;2023-01-29T11:31:57;58.70;;;31.55;;
54831;SDS011;40730;53.068;6.572;2023-01-29T11:34:24;62.20;;;31.98;;
54831;SDS011;40730;53.068;6.572;2023-01-29T11:36:58;58.15;;;31.52;;
54831;SDS011;40730;53.068;6.572;2023-01-29T11:39:29;59.28;;;31.63;;
54831;SDS011;40730;53.068;6.572;2023-01-29T11:42:03;59.58;;;32.00;;
54831;SDS011;40730;53.068;6.572;2023-01-29T11:47:22;58.53;;;32.00;;
54831;SDS011;40730;53.068;6.572;2023-01-29T11:49:57;57.67;;;31.25;;
54831;SDS011;40730;53.068;6.572;2023-01-29T11:52:40;57.85;;;30.90;;
54831;SDS011;40730;53.068;6.572;2023-01-29T11:57:51;53.42;;;30.48;;
54831;SDS011;40730;53.068;6.572;2023-01-29T12:00:28;57.95;;;31.98;;
54831;SDS011;40730;53.068;6.572;2023-01-29T12:03:03;53.63;;;29.85;;
54831;SDS011;40730;53.068;6.572;2023-01-29T12:05:31;51.83;;;28.85;;
54831;SDS011;40730;53.068;6.572;2023-01-29T12:07:57;49.10;;;28.15;;
54831;SDS011;40730;53.068;6.572;2023-01-29T12:15:44;51.83;;;28.20;;
54831;SDS011;40730;53.068;6.572;2023-01-29T12:18:30;51.60;;;31.02;;
54831;SDS011;40730;53.068;6.572;2023-01-29T12:21:20;46.67;;;28.02;;
54831;SDS011;40730;53.068;6.572;2023-01-29T12:29:48;50.72;;;29.52;;
54831;SDS011;40730;53.068;6.572;2023-01-29T12:35:34;49.13;;;28.05;;
54831;SDS011;40730;53.068;6.572;2023-01-29T12:38:18;51.75;;;29.65;;
54831;SDS011;40730;53.068;6.572;2023-01-29T12:43:23;57.35;;;32.63;;
54831;SDS011;40730;53.068;6.572;2023-01-29T12:45:52;56.53;;;33.38;;
54831;SDS011;40730;53.068;6.572;2023-01-29T12:48:52;62.55;;;32.97;;
54831;SDS011;40730;53.068;6.572;2023-01-29T12:51:22;60.92;;;34.33;;
54831;SDS011;40730;53.068;6.572;2023-01-29T12:54:11;59.10;;;34.22;;
54831;SDS011;40730;53.068;6.572;2023-01-29T12:56:56;59.35;;;35.08;;
54831;SDS011;40730;53.068;6.572;2023-01-29T12:59:27;66.63;;;35.97;;
54831;SDS011;40730;53.068;6.572;2023-01-29T13:04:52;69.05;;;36.33;;
54831;SDS011;40730;53.068;6.572;2023-01-29T13:07:30;69.70;;;37.20;;
54831;SDS011;40730;53.068;6.572;2023-01-29T13:10:14;68.68;;;36.90;;
54831;SDS011;40730;53.068;6.572;2023-01-29T13:12:51;71.97;;;37.80;;
54831;SDS011;40730;53.068;6.572;2023-01-29T13:15:23;65.15;;;36.40;;
54831;SDS011;40730;53.068;6.572;2023-01-29T13:18:02;69.35;;;36.83;;
54831;SDS011;40730;53.068;6.572;2023-01-29T13:20:31;69.05;;;36.90;;
54831;SDS011;40730;53.068;6.572;2023-01-29T13:23:05;69.68;;;36.20;;
54831;SDS011;40730;53.068;6.572;2023-01-29T13:25:52;65.50;;;34.33;;
54831;SDS011;40730;53.068;6.572;2023-01-29T13:28:19;61.63;;;36.15;;
54831;SDS011;40730;53.068;6.572;2023-01-29T13:31:07;66.25;;;36.03;;
54831;SDS011;40730;53.068;6.572;2023-01-29T13:36:31;62.92;;;33.22;;
54831;SDS011;40730;53.068;6.572;2023-01-29T13:38:59;60.03;;;33.47;;
54831;SDS011;40730;53.068;6.572;2023-01-29T13:41:33;58.13;;;32.03;;
54831;SDS011;40730;53.068;6.572;2023-01-29T13:44:03;58.88;;;30.92;;
54831;SDS011;40730;53.068;6.572;2023-01-29T13:46:31;58.78;;;31.70;;
54831;SDS011;40730;53.068;6.572;2023-01-29T13:48:57;59.78;;;33.95;;
54831;SDS011;40730;53.068;6.572;2023-01-29T13:51:30;60.47;;;34.30;;
54831;SDS011;40730;53.068;6.572;2023-01-29T13:54:01;60.78;;;32.63;;
54831;SDS011;40730;53.068;6.572;2023-01-29T13:59:05;59.97;;;32.50;;
54831;SDS011;40730;53.068;6.572;2023-01-29T14:06:56;65.93;;;36.47;;
54831;SDS011;40730;53.068;6.572;2023-01-29T14:12:01;70.55;;;36.00;;
54831;SDS011;40730;53.068;6.572;2023-01-29T14:17:12;67.13;;;34.28;;
54831;SDS011;40730;53.068;6.572;2023-01-29T14:19:47;72.85;;;36.58;;
54831;SDS011;40730;53.068;6.572;2023-01-29T14:22:20;74.55;;;37.85;;
54831;SDS011;40730;53.068;6.572;2023-01-29T14:24:48;75.13;;;38.28;;
54831;SDS011;40730;53.068;6.572;2023-01-29T14:27:21;75.07;;;39.92;;
54831;SDS011;40730;53.068;6.572;2023-01-29T14:29:51;72.60;;;40.58;;
54831;SDS011;40730;53.068;6.572;2023-01-29T14:32:27;81.18;;;40.65;;
54831;SDS011;40730;53.068;6.572;2023-01-29T14:35:04;76.78;;;40.95;;
54831;SDS011;40730;53.068;6.572;2023-01-29T14:37:44;81.53;;;40.67;;
54831;SDS011;40730;53.068;6.572;2023-01-29T14:42:45;78.25;;;40.53;;
54831;SDS011;40730;53.068;6.572;2023-01-29T14:45:29;79.95;;;40.42;;
54831;SDS011;40730;53.068;6.572;2023-01-29T14:48:15;78.75;;;39.75;;
54831;SDS011;40730;53.068;6.572;2023-01-29T14:50:47;84.72;;;42.10;;
54831;SDS011;40730;53.068;6.572;2023-01-29T14:53:26;76.75;;;39.38;;
54831;SDS011;40730;53.068;6.572;2023-01-29T14:56:14;90.68;;;42.83;;
54831;SDS011;40730;53.068;6.572;2023-01-29T14:59:01;77.85;;;39.70;;
54831;SDS011;40730;53.068;6.572;2023-01-29T15:01:42;93.30;;;42.92;;
54831;SDS011;40730;53.068;6.572;2023-01-29T15:04:16;81.75;;;40.13;;
54831;SDS011;40730;53.068;6.572;2023-01-29T15:06:51;94.10;;;43.13;;
54831;SDS011;40730;53.068;6.572;2023-01-29T15:09:53;81.13;;;40.50;;
54831;SDS011;40730;53.068;6.572;2023-01-29T15:12:46;85.70;;;43.30;;
54831;SDS011;40730;53.068;6.572;2023-01-29T15:17:56;93.35;;;44.28;;
54831;SDS011;40730;53.068;6.572;2023-01-29T15:21:03;94.30;;;45.42;;
54831;SDS011;40730;53.068;6.572;2023-01-29T15:23:38;95.00;;;46.10;;
54831;SDS011;40730;53.068;6.572;2023-01-29T15:26:08;89.10;;;44.55;;
54831;SDS011;40730;53.068;6.572;2023-01-29T15:28:37;89.82;;;44.83;;
54831;SDS011;40730;53.068;6.572;2023-01-29T15:31:04;99.50;;;47.78;;
54831;SDS011;40730;53.068;6.572;2023-01-29T15:33:35;105.03;;;50.03;;
54831;SDS011;40730;53.068;6.572;2023-01-29T15:36:02;97.63;;;47.03;;
54831;SDS011;40730;53.068;6.572;2023-01-29T15:38:29;105.28;;;48.50;;
54831;SDS011;40730;53.068;6.572;2023-01-29T15:40:56;110.43;;;49.63;;
54831;SDS011;40730;53.068;6.572;2023-01-29T15:43:30;98.13;;;47.83;;
54831;SDS011;40730;53.068;6.572;2023-01-29T15:46:06;110.68;;;51.42;;
54831;SDS011;40730;53.068;6.572;2023-01-29T15:48:41;92.22;;;42.20;;
54831;SDS011;40730;53.068;6.572;2023-01-29T15:51:09;97.75;;;46.67;;
54831;SDS011;40730;53.068;6.572;2023-01-29T15:53:44;108.50;;;50.00;;
54831;SDS011;40730;53.068;6.572;2023-01-29T15:56:17;102.32;;;49.00;;
54831;SDS011;40730;53.068;6.572;2023-01-29T15:58:46;108.05;;;48.50;;
54831;SDS011;40730;53.068;6.572;2023-01-29T16:01:13;106.50;;;50.35;;
54831;SDS011;40730;53.068;6.572;2023-01-29T16:03:39;103.68;;;48.58;;
54831;SDS011;40730;53.068;6.572;2023-01-29T16:06:06;108.32;;;49.67;;
54831;SDS011;40730;53.068;6.572;2023-01-29T16:08:32;106.28;;;50.40;;
54831;SDS011;40730;53.068;6.572;2023-01-29T16:11:02;97.72;;;46.85;;
54831;SDS011;40730;53.068;6.572;2023-01-29T16:13:31;99.57;;;48.47;;
54831;SDS011;40730;53.068;6.572;2023-01-29T16:16:01;104.88;;;48.47;;
54831;SDS011;40730;53.068;6.572;2023-01-29T16:18:32;104.45;;;48.55;;
54831;SDS011;40730;53.068;6.572;2023-01-29T16:21:02;106.88;;;49.90;;
54831;SDS011;40730;53.068;6.572;2023-01-29T16:23:39;109.75;;;50.15;;
54831;SDS011;40730;53.068;6.572;2023-01-29T16:26:07;109.38;;;51.50;;
54831;SDS011;40730;53.068;6.572;2023-01-29T16:28:40;109.45;;;49.35;;
54831;SDS011;40730;53.068;6.572;2023-01-29T16:31:08;118.03;;;50.40;;
54831;SDS011;40730;53.068;6.572;2023-01-29T16:33:35;103.63;;;47.83;;
54831;SDS011;40730;53.068;6.572;2023-01-29T16:36:07;106.13;;;47.47;;
54831;SDS011;40730;53.068;6.572;2023-01-29T16:38:39;98.75;;;46.47;;
54831;SDS011;40730;53.068;6.572;2023-01-29T16:43:53;98.88;;;46.38;;
54831;SDS011;40730;53.068;6.572;2023-01-29T16:46:46;97.60;;;45.55;;
54831;SDS011;40730;53.068;6.572;2023-01-29T16:51:50;91.80;;;45.78;;
54831;SDS011;40730;53.068;6.572;2023-01-29T16:54:16;87.22;;;43.33;;
54831;SDS011;40730;53.068;6.572;2023-01-29T16:56:48;86.72;;;42.35;;
54831;SDS011;40730;53.068;6.572;2023-01-29T16:59:27;89.05;;;44.58;;
54831;SDS011;40730;53.068;6.572;2023-01-29T17:01:58;89.35;;;43.50;;
54831;SDS011;40730;53.068;6.572;2023-01-29T17:04:24;90.38;;;45.85;;